Time;durP1;ratioP1;P1;durP2;ratioP2;P2;SDS_P1;SDS_P2;PMS_P1;PMS_P2;Temp;Humidity;BMP_temperature;BMP_pressure;BME280_temperature;BME280_humidity;BME280_pressure;Samples;Min_cycle;Max_cycle;Signal;HPM_P1;HPM_P2
2022/07/26 00:00:52;;;;;;;;;1.00;1.00;;;;;26.46;39.41;101248.53;4901636;29;45360;-56
2022/07/26 00:03:17;;;;;;;;;2.00;1.00;;;;;26.45;38.81;101250.34;4901861;29;45475;-56
2022/07/26 00:05:44;;;;;;;;;0.75;0.75;;;;;26.46;39.15;101265.31;4901864;29;45527;-56
2022/07/26 00:08:09;;;;;;;;;2.00;1.00;;;;;26.46;38.88;101260.00;4901673;28;45651;-56
2022/07/26 00:10:39;;;;;;;;;2.00;1.00;;;;;26.46;38.92;101254.69;4901988;29;45233;-56
2022/07/26 00:13:04;;;;;;;;;2.75;1.50;;;;;26.46;39.25;101249.38;4901911;28;45407;-56
2022/07/26 00:15:30;;;;;;;;;3.00;1.00;;;;;26.45;39.12;101258.31;4902009;29;45485;-56
2022/07/26 00:17:55;;;;;;;;;1.50;1.25;;;;;26.46;39.34;101253.88;4901243;29;45322;-56
2022/07/26 00:20:20;;;;;;;;;2.00;0.00;;;;;26.46;38.99;101256.53;4901743;29;45308;-55
2022/07/26 00:22:46;;;;;;;;;1.75;1.00;;;;;26.47;39.28;101255.53;4901477;28;45391;-55
2022/07/26 00:25:11;;;;;;;;;1.50;1.00;;;;;26.45;39.06;101252.16;4901753;29;45364;-55
2022/07/26 00:27:36;;;;;;;;;1.00;1.00;;;;;26.46;39.47;101253.88;4900624;29;45742;-56
2022/07/26 00:30:05;;;;;;;;;2.00;1.00;;;;;26.44;39.24;101259.28;4901420;29;45359;-56
2022/07/26 00:32:30;;;;;;;;;1.75;1.00;;;;;26.43;39.25;101254.91;4901577;29;45305;-56
2022/07/26 00:34:56;;;;;;;;;1.00;1.00;;;;;26.44;39.38;101264.59;4901486;29;46046;-56
2022/07/26 00:37:21;;;;;;;;;1.25;1.25;;;;;26.45;39.38;101254.81;4900844;29;59563;-56
2022/07/26 00:39:48;;;;;;;;;0.75;0.00;;;;;26.44;39.49;101256.63;4901008;29;45330;-56
2022/07/26 00:42:13;;;;;;;;;1.00;1.00;;;;;26.43;39.08;101254.91;4901415;29;45490;-56
2022/07/26 00:44:43;;;;;;;;;1.00;1.00;;;;;26.43;39.45;101254.91;4901561;29;45623;-55
2022/07/26 00:47:09;;;;;;;;;1.00;1.00;;;;;26.43;39.25;101254.09;4901094;29;45577;-56
2022/07/26 00:49:34;;;;;;;;;1.00;1.00;;;;;26.40;39.37;101255.16;4901418;29;45325;-55
2022/07/26 00:51:59;;;;;;;;;1.00;1.00;;;;;26.40;39.10;101255.16;4901022;29;45716;-56
2022/07/26 00:54:25;;;;;;;;;2.50;1.25;;;;;26.41;39.51;101253.34;4901461;29;45424;-56
2022/07/26 00:56:51;;;;;;;;;0.50;0.00;;;;;26.39;39.17;101250.81;4899633;29;45320;-56
2022/07/26 00:59:17;;;;;;;;;1.00;1.00;;;;;26.41;39.22;101250.69;4901201;29;45284;-56
2022/07/26 01:01:42;;;;;;;;;1.25;1.00;;;;;26.40;38.94;101252.50;4900795;29;45272;-56
2022/07/26 01:04:07;;;;;;;;;1.00;1.00;;;;;26.40;39.08;101255.16;4901056;29;45593;-56
2022/07/26 01:06:33;;;;;;;;;0.00;0.00;;;;;26.40;38.95;101255.16;4901213;29;45631;-56
2022/07/26 01:08:59;;;;;;;;;0.75;0.75;;;;;26.39;39.34;101248.97;4900660;29;45401;-56
2022/07/26 01:11:24;;;;;;;;;0.50;0.50;;;;;26.39;39.44;101248.16;4901059;29;45464;-56
2022/07/26 01:13:50;;;;;;;;;1.00;1.00;;;;;26.39;39.25;101245.50;4900889;29;45434;-56
2022/07/26 01:16:16;;;;;;;;;1.00;1.00;;;;;26.39;39.45;101248.97;4900717;29;46682;-56
2022/07/26 01:18:42;;;;;;;;;2.00;1.00;;;;;26.37;39.50;101242.09;4900589;29;45872;-56
2022/07/26 01:21:09;;;;;;;;;2.00;0.25;;;;;26.37;39.14;101240.28;4900713;29;45379;-57
2022/07/26 01:23:35;;;;;;;;;0.00;0.00;;;;;26.36;39.16;101240.41;4901445;29;45446;-56
2022/07/26 01:26:00;;;;;;;;;0.00;0.00;;;;;26.33;39.10;101244.13;4899082;29;46987;-56
2022/07/26 01:28:26;;;;;;;;;1.00;1.00;;;;;26.34;38.88;101239.66;4900272;29;45197;-56
2022/07/26 01:30:51;;;;;;;;;1.50;1.50;;;;;26.35;39.17;101246.66;4900584;29;45294;-56
2022/07/26 01:33:16;;;;;;;;;1.75;1.00;;;;;26.34;38.85;101244.97;4900810;29;45521;-56
2022/07/26 01:35:42;;;;;;;;;0.75;0.00;;;;;26.34;38.80;101247.63;4900224;29;45579;-57
2022/07/26 01:38:07;;;;;;;;;1.25;1.00;;;;;26.34;39.29;101244.97;4899150;29;46135;-57
2022/07/26 01:40:32;;;;;;;;;2.00;1.00;;;;;26.33;39.67;101238.81;4900752;29;45340;-57
2022/07/26 01:42:58;;;;;;;;;0.25;0.25;;;;;26.34;39.06;101243.19;4900680;29;45427;-56
2022/07/26 01:45:23;;;;;;;;;0.50;0.00;;;;;26.33;39.23;101238.81;4900325;29;45352;-56
2022/07/26 01:47:49;;;;;;;;;1.00;1.00;;;;;26.34;39.44;101239.66;4900028;29;45356;-55
2022/07/26 01:50:16;;;;;;;;;1.00;1.00;;;;;26.34;39.29;101239.66;4900408;29;45411;-56
2022/07/26 01:52:41;;;;;;;;;0.75;0.75;;;;;26.34;39.43;101234.34;4900230;29;45633;-57
2022/07/26 01:55:07;;;;;;;;;1.00;1.00;;;;;26.33;39.47;101244.13;4900498;29;46152;-56
2022/07/26 01:57:32;;;;;;;;;0.75;0.75;;;;;26.32;39.13;101241.56;4900707;29;45337;-57
2022/07/26 01:59:57;;;;;;;;;2.00;1.00;;;;;26.32;39.26;101242.44;4900135;29;45429;-57
2022/07/26 02:02:23;;;;;;;;;3.00;2.00;;;;;26.32;39.38;101236.25;4899173;29;45435;-57
2022/07/26 02:04:57;;;;;;;;;3.25;1.00;;;;;26.30;39.47;101233.72;4899776;29;45319;-57
2022/07/26 02:07:30;;;;;;;;;1.00;1.00;;;;;26.29;39.37;101237.34;4900107;29;45616;-57
2022/07/26 02:09:56;;;;;;;;;1.00;1.00;;;;;26.27;39.45;101233.13;4899905;29;45988;-57
2022/07/26 02:12:22;;;;;;;;;1.00;1.00;;;;;26.26;39.56;101239.38;4900320;29;45469;-56
2022/07/26 02:14:48;;;;;;;;;1.00;1.00;;;;;26.24;39.53;101240.34;4899654;29;45371;-58
2022/07/26 02:17:14;;;;;;;;;1.25;1.00;;;;;26.22;39.42;101239.59;4898702;29;45371;-56
2022/07/26 02:19:39;;;;;;;;;1.50;1.50;;;;;26.21;39.63;101240.56;4900049;29;45313;-56
2022/07/26 02:22:05;;;;;;;;;0.00;0.00;;;;;26.18;39.69;101238.13;4900311;29;45654;-58
2022/07/26 02:24:30;;;;;;;;;0.00;0.00;;;;;26.18;39.93;101240.78;4898624;29;46717;-57
2022/07/26 02:26:56;;;;;;;;;2.00;1.00;;;;;26.16;39.82;101237.41;4899410;28;45316;-57
2022/07/26 02:29:22;;;;;;;;;2.50;0.00;;;;;26.15;39.50;101246.34;4899883;29;45506;-57
2022/07/26 02:31:48;;;;;;;;;0.75;0.50;;;;;26.14;39.76;101249.94;4899785;29;45372;-57
2022/07/26 02:34:13;;;;;;;;;1.00;1.00;;;;;26.14;39.55;101244.63;4899638;28;45526;-56
2022/07/26 02:36:38;;;;;;;;;0.75;0.75;;;;;26.12;39.82;101251.88;4899640;29;45442;-56
2022/07/26 02:39:04;;;;;;;;;3.00;2.00;;;;;26.10;39.84;101248.47;4899692;29;45316;-56
2022/07/26 02:41:30;;;;;;;;;1.00;1.00;;;;;26.10;39.77;101244.97;4899925;29;45623;-56
2022/07/26 02:43:55;;;;;;;;;1.50;0.25;;;;;26.07;40.27;101246.84;4899206;29;46312;-56
2022/07/26 02:46:20;;;;;;;;;0.75;0.75;;;;;26.07;39.75;101248.69;4899605;28;45332;-56
2022/07/26 02:48:46;;;;;;;;;1.25;1.25;;;;;26.04;40.12;101246.25;4899286;29;45784;-56
2022/07/26 02:51:11;;;;;;;;;1.00;1.00;;;;;26.04;40.50;101243.59;4899324;29;45434;-57
2022/07/26 02:53:36;;;;;;;;;3.00;1.00;;;;;26.04;39.86;101243.59;4899565;29;46964;-56
2022/07/26 02:56:02;;;;;;;;;1.00;1.00;;;;;26.03;39.82;101260.47;4898132;29;46158;-56
2022/07/26 02:58:27;;;;;;;;;1.00;1.00;;;;;26.02;39.83;101250.81;4899577;29;45329;-57
2022/07/26 03:00:53;;;;;;;;;1.25;1.25;;;;;26.01;40.44;101243.78;4899434;29;45535;-57
2022/07/26 03:03:18;;;;;;;;;2.25;1.00;;;;;25.99;40.03;101257.19;4899123;29;46409;-57
2022/07/26 03:05:43;;;;;;;;;0.00;0.00;;;;;25.99;40.03;101253.69;4899010;29;45360;-57
2022/07/26 03:08:09;;;;;;;;;1.00;1.00;;;;;25.99;40.33;101256.34;4899215;29;45249;-58
2022/07/26 03:10:34;;;;;;;;;1.00;1.00;;;;;25.97;40.72;101250.28;4898569;29;45245;-57
2022/07/26 03:13:00;;;;;;;;;1.75;0.75;;;;;25.97;40.33;101252.94;4898874;29;45608;-56
2022/07/26 03:15:25;;;;;;;;;1.00;1.00;;;;;25.96;40.57;101251.25;4899105;29;45337;-57
2022/07/26 03:17:50;;;;;;;;;1.00;1.00;;;;;25.96;40.67;101248.59;4899005;29;45288;-57
2022/07/26 03:20:16;;;;;;;;;1.00;1.00;;;;;25.94;40.28;101251.34;4899400;29;45628;-59
2022/07/26 03:22:42;;;;;;;;;2.00;1.00;;;;;25.93;40.36;101262.94;4898617;29;46794;-56
2022/07/26 03:25:07;;;;;;;;;3.50;1.00;;;;;25.91;40.38;101259.53;4899271;29;45237;-56
2022/07/26 03:27:33;;;;;;;;;1.00;1.00;;;;;25.90;40.36;101258.69;4899209;29;45669;-57
2022/07/26 03:29:58;;;;;;;;;2.75;1.00;;;;;25.89;40.48;101254.34;4899073;29;45506;-56
2022/07/26 03:32:24;;;;;;;;;2.00;1.00;;;;;25.88;40.38;101260.63;4899121;29;46156;-57
2022/07/26 03:34:49;;;;;;;;;1.75;1.00;;;;;25.87;40.59;101252.78;4898643;29;45276;-57
2022/07/26 03:37:15;;;;;;;;;2.00;0.25;;;;;25.87;40.99;101252.78;4899097;29;45439;-56
2022/07/26 03:39:40;;;;;;;;;1.00;1.00;;;;;25.87;40.36;101258.06;4899086;29;45699;-56
2022/07/26 03:42:06;;;;;;;;;2.00;0.50;;;;;25.87;40.49;101260.72;4899121;29;45988;-56
2022/07/26 03:44:31;;;;;;;;;1.00;1.00;;;;;25.84;40.94;101256.50;4898895;29;45258;-56
2022/07/26 03:46:57;;;;;;;;;1.00;1.00;;;;;25.85;40.65;101260.00;4898386;29;45376;-56
2022/07/26 03:49:22;;;;;;;;;1.00;1.00;;;;;25.84;40.46;101260.94;4899034;29;45317;-55
2022/07/26 03:51:47;;;;;;;;;1.50;1.50;;;;;25.82;41.02;101261.06;4897213;29;47660;-56
2022/07/26 03:54:13;;;;;;;;;1.50;1.50;;;;;25.83;40.72;101267.22;4898469;28;50952;-55
2022/07/26 03:56:39;;;;;;;;;1.00;1.00;;;;;25.82;40.48;101270.81;4898695;29;53306;-56
2022/07/26 03:59:08;;;;;;;;;0.00;0.00;;;;;25.82;41.03;101274.34;4899064;29;45585;-55
2022/07/26 04:01:35;;;;;;;;;0.00;0.00;;;;;25.80;40.69;101270.94;4898748;29;46882;-57
2022/07/26 04:04:00;;;;;;;;;1.00;1.00;;;;;25.81;41.20;101272.63;4899653;29;45649;-57
2022/07/26 04:06:26;;;;;;;;;1.00;1.00;;;;;25.80;40.96;101270.94;4900673;29;45781;-57
2022/07/26 04:08:52;;;;;;;;;1.00;1.00;;;;;25.78;40.91;101271.06;4901791;28;45634;-57
2022/07/26 04:11:17;;;;;;;;;1.25;1.25;;;;;25.80;40.90;101267.44;4901783;29;47079;-57
2022/07/26 04:13:43;;;;;;;;;2.00;1.00;;;;;25.78;40.74;101272.84;4901434;29;45328;-57
2022/07/26 04:16:08;;;;;;;;;1.00;1.00;;;;;25.77;40.95;101269.38;4902183;29;45417;-56
2022/07/26 04:18:33;;;;;;;;;1.00;1.00;;;;;25.75;40.87;101267.75;4902304;29;45484;-57
2022/07/26 04:20:59;;;;;;;;;2.50;1.00;;;;;25.77;40.77;101268.50;4901317;29;46536;-57
2022/07/26 04:23:24;;;;;;;;;1.00;1.00;;;;;25.76;40.99;101277.41;4901384;29;45289;-58
2022/07/26 04:25:50;;;;;;;;;3.00;3.00;;;;;25.76;41.42;101280.06;4900158;29;45470;-57
2022/07/26 04:28:15;;;;;;;;;2.00;1.00;;;;;25.75;41.02;101270.41;4901614;29;45553;-57
2022/07/26 04:30:41;;;;;;;;;1.25;1.00;;;;;25.75;41.17;101271.28;4901375;29;45361;-57
2022/07/26 04:33:06;;;;;;;;;2.00;1.00;;;;;25.75;41.64;101273.06;4901697;29;45271;-57
2022/07/26 04:35:32;;;;;;;;;1.00;1.00;;;;;25.76;41.26;101267.66;4901676;29;45281;-58
2022/07/26 04:37:57;;;;;;;;;2.25;2.00;;;;;25.75;41.69;101270.41;4900301;29;45668;-57
2022/07/26 04:40:24;;;;;;;;;2.00;2.00;;;;;25.72;41.52;101263.50;4901434;29;45579;-55
2022/07/26 04:42:50;;;;;;;;;5.75;2.50;;;;;25.71;41.33;101275.09;4901096;28;45400;-57
2022/07/26 04:45:17;;;;;;;;;1.50;1.50;;;;;25.70;41.66;101273.38;4901620;29;45381;-54
2022/07/26 04:47:44;;;;;;;;;2.50;1.25;;;;;25.68;41.31;101279.78;4901401;29;45491;-55
2022/07/26 04:50:11;;;;;;;;;1.50;1.50;;;;;25.65;41.18;101280.84;4901230;29;46731;-57
2022/07/26 04:52:36;;;;;;;;;2.25;1.00;;;;;25.67;41.81;101288.69;4901538;29;45298;-55
2022/07/26 04:55:03;;;;;;;;;2.00;0.00;;;;;25.67;41.35;101288.69;4899853;29;45320;-54
2022/07/26 04:57:28;;;;;;;;;2.00;2.00;;;;;25.67;41.91;101294.00;4901416;29;45328;-55
2022/07/26 04:59:54;;;;;;;;;2.00;2.00;;;;;25.67;42.05;101294.00;4900648;29;45566;-56
2022/07/26 05:02:19;;;;;;;;;3.00;3.00;;;;;25.67;41.48;101299.31;4901101;29;45727;-56
2022/07/26 05:04:44;;;;;;;;;1.00;1.00;;;;;25.65;42.04;101291.47;4900609;29;47406;-56
2022/07/26 05:07:10;;;;;;;;;2.75;1.25;;;;;25.66;41.72;101297.59;4901273;29;45446;-54
2022/07/26 05:09:35;;;;;;;;;1.25;1.25;;;;;25.63;41.90;101294.22;4901162;29;45332;-58
2022/07/26 05:12:01;;;;;;;;;2.50;2.00;;;;;25.65;42.11;101301.22;4900673;29;45353;-58
2022/07/26 05:14:26;;;;;;;;;3.25;2.00;;;;;25.65;42.00;101304.75;4900640;29;45511;-56
2022/07/26 05:16:51;;;;;;;;;3.25;1.75;;;;;25.65;42.33;101311.84;4900745;29;45523;-57
2022/07/26 05:19:16;;;;;;;;;4.25;2.00;;;;;25.62;42.19;101303.16;4900602;29;48683;-47
2022/07/26 05:21:42;;;;;;;;;3.00;2.25;;;;;25.63;42.25;101304.00;4900162;28;53552;-51
2022/07/26 05:24:07;;;;;;;;;3.00;2.00;;;;;25.61;42.47;101312.06;4899751;29;45353;-57
2022/07/26 05:26:33;;;;;;;;;2.50;1.75;;;;;25.58;42.52;101306.97;4901018;29;45634;-54
2022/07/26 05:28:58;;;;;;;;;2.00;2.00;;;;;25.57;42.40;101315.88;4898678;29;56360;-54
2022/07/26 05:31:24;;;;;;;;;2.50;2.50;;;;;25.55;42.12;101320.44;4900482;29;46581;-55
2022/07/26 05:33:49;;;;;;;;;3.00;3.00;;;;;25.51;42.29;101321.63;4900492;29;45350;-57
2022/07/26 05:36:15;;;;;;;;;3.00;1.00;;;;;25.48;42.84;101311.22;4900876;29;45520;-54
2022/07/26 05:38:41;;;;;;;;;5.75;3.25;;;;;25.46;42.51;101323.75;4900037;29;46065;-54
2022/07/26 05:41:06;;;;;;;;;1.75;1.75;;;;;25.42;42.74;101317.78;4900860;29;45393;-54
2022/07/26 05:43:31;;;;;;;;;3.00;2.00;;;;;25.38;42.81;101312.78;4900623;29;45335;-50
2022/07/26 05:45:57;;;;;;;;;6.50;2.50;;;;;25.32;42.70;101314.88;4900506;29;45550;-50
2022/07/26 05:48:23;;;;;;;;;1.75;1.75;;;;;25.30;42.79;101319.44;4900226;29;46706;-54
2022/07/26 05:50:48;;;;;;;;;2.00;2.00;;;;;25.27;42.63;101319.66;4900034;29;45307;-53
2022/07/26 05:53:14;;;;;;;;;3.00;2.25;;;;;25.22;42.82;101310.31;4900532;29;45444;-52
2022/07/26 05:55:39;;;;;;;;;2.25;2.00;;;;;25.20;42.68;101315.72;4900882;29;45426;-55
2022/07/26 05:58:05;;;;;;;;;3.00;2.00;;;;;25.16;43.26;101312.44;4900180;29;45597;-53
2022/07/26 06:00:30;;;;;;;;;3.25;2.75;;;;;25.13;43.38;101325.06;4900065;29;45830;-51
2022/07/26 06:02:56;;;;;;;;;2.25;2.00;;;;;25.11;43.35;101322.50;4899999;29;45378;-54
2022/07/26 06:05:21;;;;;;;;;1.50;1.50;;;;;25.08;43.31;101325.38;4900385;29;45392;-56
2022/07/26 06:07:46;;;;;;;;;2.50;2.25;;;;;25.03;43.01;101327.47;4899607;29;46540;-56
2022/07/26 06:10:12;;;;;;;;;3.25;3.00;;;;;25.01;43.65;101324.94;4898831;29;45399;-59
2022/07/26 06:12:37;;;;;;;;;4.00;4.00;;;;;24.99;43.29;101326.81;4900416;29;45458;-59
2022/07/26 06:15:03;;;;;;;;;4.75;3.00;;;;;24.96;43.86;101326.19;4898564;29;45628;-58
2022/07/26 06:17:29;;;;;;;;;2.00;2.00;;;;;24.96;43.49;101334.13;4898645;29;48025;-57
2022/07/26 06:19:55;;;;;;;;;1.50;1.50;;;;;24.95;44.12;101325.34;4899649;29;45347;-58
2022/07/26 06:22:21;;;;;;;;;3.00;1.75;;;;;24.94;43.80;101334.25;4899967;29;45225;-52
2022/07/26 06:24:46;;;;;;;;;2.00;2.00;;;;;24.92;44.14;101341.44;4899401;29;45198;-48
2022/07/26 06:27:11;;;;;;;;;2.00;2.00;;;;;24.89;44.33;101339.00;4899058;29;45830;-49
2022/07/26 06:29:37;;;;;;;;;3.00;3.00;;;;;24.88;43.90;101337.28;4898742;29;45264;-51
2022/07/26 06:32:02;;;;;;;;;6.75;3.00;;;;;24.85;44.38;101340.16;4899666;29;45299;-54
2022/07/26 06:34:28;;;;;;;;;4.50;4.50;;;;;24.85;43.72;101338.34;4898724;29;45650;-49
2022/07/26 06:36:53;;;;;;;;;3.00;3.00;;;;;24.82;44.05;101340.38;4899397;28;46620;-50
2022/07/26 06:39:19;;;;;;;;;3.00;3.00;;;;;24.79;44.07;101337.91;4899714;29;45436;-51
2022/07/26 06:41:44;;;;;;;;;3.00;3.00;;;;;24.75;44.54;101337.25;4899514;29;45788;-51
2022/07/26 06:44:10;;;;;;;;;4.00;2.75;;;;;24.72;43.87;101341.91;4898825;29;45424;-49
2022/07/26 06:46:35;;;;;;;;;2.00;2.00;;;;;24.73;44.57;101335.66;4899687;29;46238;-49
2022/07/26 06:49:01;;;;;;;;;2.50;2.50;;;;;24.77;44.67;101348.63;4899391;29;45329;-51
2022/07/26 06:51:26;;;;;;;;;2.50;1.50;;;;;24.80;44.10;101342.25;4899640;29;45347;-52
2022/07/26 06:53:52;;;;;;;;;3.50;3.25;;;;;24.84;44.08;101346.41;4899535;29;45289;-52
2022/07/26 06:56:18;;;;;;;;;4.00;3.00;;;;;24.88;44.36;101347.06;4899360;29;46454;-54
2022/07/26 06:58:44;;;;;;;;;3.00;3.00;;;;;24.87;44.15;101343.53;4899168;29;45386;-51
2022/07/26 07:01:09;;;;;;;;;5.50;4.00;;;;;24.86;44.64;101347.16;4899903;29;45250;-53
2022/07/26 07:03:35;;;;;;;;;4.00;4.00;;;;;24.85;44.32;101351.59;4899670;29;45450;-51
2022/07/26 07:06:00;;;;;;;;;6.25;4.00;;;;;24.82;44.15;101348.31;4898947;29;45475;-52
2022/07/26 07:08:25;;;;;;;;;3.00;3.00;;;;;24.78;44.10;101342.38;4899269;29;45394;-54
2022/07/26 07:10:52;;;;;;;;;2.50;2.50;;;;;24.74;44.37;101351.47;4899176;29;45290;-54
2022/07/26 07:13:18;;;;;;;;;5.75;2.00;;;;;24.72;44.16;101347.22;4899437;29;45656;-53
2022/07/26 07:15:43;;;;;;;;;3.00;3.00;;;;;24.68;44.41;101358.00;4898810;29;46053;-47
2022/07/26 07:18:09;;;;;;;;;2.00;2.00;;;;;24.65;45.05;101358.19;4899453;29;45514;-52
2022/07/26 07:20:34;;;;;;;;;2.75;2.75;;;;;24.65;44.81;101366.13;4899304;29;45321;-52
2022/07/26 07:23:00;;;;;;;;;4.00;3.00;;;;;24.62;44.47;101358.41;4899101;29;45781;-49
2022/07/26 07:25:25;;;;;;;;;2.00;2.00;;;;;24.62;44.47;101358.41;4897880;29;47363;-55
2022/07/26 07:27:51;;;;;;;;;2.25;2.25;;;;;24.60;44.76;101362.94;4897179;29;45469;-53
2022/07/26 07:30:16;;;;;;;;;4.50;3.25;;;;;24.59;45.02;101365.66;4899093;29;45319;-52
2022/07/26 07:32:42;;;;;;;;;4.00;3.00;;;;;24.57;44.86;101367.59;4899095;29;45450;-51
2022/07/26 07:35:08;;;;;;;;;4.50;3.00;;;;;24.53;45.23;101356.31;4899305;29;45505;-51
2022/07/26 07:37:34;;;;;;;;;2.00;2.00;;;;;24.52;44.99;101365.25;4901060;29;45354;-51
2022/07/26 07:40:04;;;;;;;;;5.00;4.00;;;;;24.49;44.60;101368.06;4902132;29;45410;-54
2022/07/26 07:42:29;;;;;;;;;3.50;3.00;;;;;24.45;45.08;101363.91;4902459;28;45338;-55
2022/07/26 07:44:54;;;;;;;;;3.25;2.25;;;;;24.44;45.19;101364.84;4901267;29;63525;-53
2022/07/26 07:47:21;;;;;;;;;6.75;3.25;;;;;24.43;45.16;101369.31;4901519;29;59145;-50
2022/07/26 07:49:46;;;;;;;;;3.00;3.00;;;;;24.42;45.31;101364.97;4902058;29;45401;-53
2022/07/26 07:52:11;;;;;;;;;6.00;3.00;;;;;24.40;45.11;101372.16;4902318;29;45302;-54
2022/07/26 07:54:37;;;;;;;;;3.00;3.00;;;;;24.38;45.31;101363.44;4902405;29;45976;-50
2022/07/26 07:57:02;;;;;;;;;5.00;3.25;;;;;24.36;45.08;101365.38;4901688;29;45392;-53
2022/07/26 07:59:28;;;;;;;;;4.00;4.00;;;;;24.36;45.29;101363.56;4902086;29;45679;-53
2022/07/26 08:01:53;;;;;;;;;4.00;4.00;;;;;24.34;45.40;101367.25;4901964;29;45340;-53
2022/07/26 08:04:18;;;;;;;;;3.25;3.25;;;;;24.32;44.67;101364.69;4901879;29;46174;-53
2022/07/26 08:06:44;;;;;;;;;4.00;4.00;;;;;24.32;45.08;101362.03;4901662;29;45534;-51
2022/07/26 08:09:10;;;;;;;;;4.75;4.00;;;;;24.29;44.78;101369.34;4901996;29;45290;-54
2022/07/26 08:11:36;;;;;;;;;3.25;3.25;;;;;24.26;45.08;101364.22;4902255;29;45464;-52
2022/07/26 08:14:01;;;;;;;;;4.50;4.25;;;;;24.28;45.24;101368.50;4901510;29;46264;-54
2022/07/26 08:16:27;;;;;;;;;6.50;3.00;;;;;24.26;44.93;101370.38;4901670;29;45232;-52
2022/07/26 08:18:52;;;;;;;;;3.00;3.00;;;;;24.27;44.76;101365.94;4901573;29;45386;-57
2022/07/26 08:21:17;;;;;;;;;4.25;3.00;;;;;24.26;45.00;101378.34;4901887;29;45571;-54
2022/07/26 08:23:43;;;;;;;;;2.25;2.25;;;;;24.26;44.86;101380.97;4901297;29;46354;-54
2022/07/26 08:26:08;;;;;;;;;3.00;3.00;;;;;24.27;44.56;101372.09;4901853;29;45345;-52
2022/07/26 08:28:34;;;;;;;;;4.00;3.25;;;;;24.26;44.42;101375.69;4901447;29;45634;-53
2022/07/26 08:30:59;;;;;;;;;2.25;2.00;;;;;24.26;44.48;101380.13;4901499;29;45542;-51
2022/07/26 08:33:24;;;;;;;;;2.00;2.00;;;;;24.28;44.99;101381.75;4901313;29;45485;-49
2022/07/26 08:35:50;;;;;;;;;4.00;4.00;;;;;24.27;44.31;101381.81;4901260;29;45280;-57
2022/07/26 08:38:15;;;;;;;;;4.75;2.00;;;;;24.27;44.89;101387.13;4901467;29;45353;-53
2022/07/26 08:40:40;;;;;;;;;1.00;1.00;;;;;24.25;44.80;101376.63;4901807;29;45550;-52
2022/07/26 08:43:07;;;;;;;;;3.75;1.75;;;;;24.26;44.93;101386.28;4901418;29;45325;-54
2022/07/26 08:45:33;;;;;;;;;3.00;3.00;;;;;24.26;44.34;101386.28;4901185;29;45892;-56
2022/07/26 08:48:00;;;;;;;;;3.00;2.50;;;;;24.23;44.82;101386.47;4899286;29;45472;-50
2022/07/26 08:50:27;;;;;;;;;2.00;2.00;;;;;24.26;44.74;101390.72;4901509;29;45577;-54
2022/07/26 08:52:58;;;;;;;;;4.00;2.25;;;;;24.24;44.82;101388.16;4899593;29;47381;-55
2022/07/26 08:55:23;;;;;;;;;3.00;2.00;;;;;24.26;44.80;101390.72;4901020;29;45296;-54
2022/07/26 08:57:49;;;;;;;;;3.75;3.25;;;;;24.27;44.80;101392.41;4900977;29;45468;-53
2022/07/26 09:00:17;;;;;;;;;3.50;3.25;;;;;24.28;44.81;101394.97;4901167;29;45401;-52
2022/07/26 09:02:42;;;;;;;;;3.75;2.25;;;;;24.30;44.29;101384.28;4900703;29;46396;-53
2022/07/26 09:05:08;;;;;;;;;8.25;3.00;;;;;24.29;44.62;101383.44;4884352;29;45325;-50
2022/07/26 09:07:33;;;;;;;;;3.25;3.00;;;;;24.30;44.87;101385.16;4901028;29;45216;-55
2022/07/26 09:10:11;;;;;;;;;2.00;2.00;;;;;24.30;44.42;101390.44;4900861;28;45384;-53
2022/07/26 09:12:38;;;;;;;;;3.00;2.00;;;;;24.30;44.77;101397.53;4900956;29;45439;-55
2022/07/26 09:15:05;;;;;;;;;2.00;2.00;;;;;24.30;44.72;101403.69;4900620;29;45435;-52
2022/07/26 09:17:43;;;;;;;;;3.00;3.00;;;;;24.30;44.78;101403.69;4900918;28;45428;-52
2022/07/26 09:20:11;;;;;;;;;5.50;3.00;;;;;24.28;44.81;101405.59;4901180;29;45404;-53
2022/07/26 09:22:54;;;;;;;;;3.00;3.00;;;;;24.27;44.67;101405.66;4900807;29;45468;-50
2022/07/26 09:25:21;;;;;;;;;5.00;3.00;;;;;24.24;44.20;101404.94;4899796;29;68733;-53
2022/07/26 09:27:46;;;;;;;;;4.00;2.00;;;;;24.23;44.67;101405.00;4900277;28;45486;-52
2022/07/26 09:30:12;;;;;;;;;2.75;2.00;;;;;24.24;44.37;101404.06;4900815;28;45374;-52
2022/07/26 09:32:37;;;;;;;;;3.00;2.00;;;;;24.24;44.49;101409.34;4899649;29;48021;-50
2022/07/26 09:35:12;;;;;;;;;3.00;2.00;;;;;24.27;44.34;101406.53;4900270;29;45473;-54
2022/07/26 09:37:42;;;;;;;;;7.00;3.00;;;;;24.26;44.71;101410.13;4900729;29;45463;-53
2022/07/26 09:40:10;;;;;;;;;3.00;3.00;;;;;24.27;44.61;101403.00;4900983;28;45519;-53
2022/07/26 09:42:36;;;;;;;;;3.75;2.25;;;;;24.26;44.61;101407.47;4900608;29;47451;-51
2022/07/26 09:45:13;;;;;;;;;4.50;2.25;;;;;24.28;44.10;101412.66;4898770;29;45873;-51
2022/07/26 09:47:39;;;;;;;;;3.00;2.75;;;;;24.29;44.40;101412.59;4900686;29;45504;-53
2022/07/26 09:50:17;;;;;;;;;3.00;3.00;;;;;24.28;44.10;101415.31;4900437;29;45175;-50
2022/07/26 09:53:10;;;;;;;;;2.00;1.50;;;;;24.28;44.01;101413.53;4900162;29;45588;-50
2022/07/26 09:55:45;;;;;;;;;2.25;2.25;;;;;24.29;44.50;101415.22;4900696;29;45742;-53
2022/07/26 09:58:15;;;;;;;;;2.50;2.25;;;;;24.28;44.67;101413.53;4900720;28;45242;-53
2022/07/26 10:00:41;;;;;;;;;4.00;3.50;;;;;24.27;44.36;101409.19;4899007;29;45507;-52
2022/07/26 10:03:07;;;;;;;;;2.00;2.00;;;;;24.30;44.19;101419.59;4900485;29;46299;-56
2022/07/26 10:05:33;;;;;;;;;5.25;3.00;;;;;24.31;44.52;101423.06;4900129;29;45441;-52
2022/07/26 10:07:59;;;;;;;;;5.00;3.00;;;;;24.32;44.19;101424.78;4899787;29;45281;-50
2022/07/26 10:10:32;;;;;;;;;3.75;2.25;;;;;24.33;43.62;101423.84;4900300;29;45296;-52
2022/07/26 10:13:01;;;;;;;;;4.00;2.00;;;;;24.32;43.57;101425.63;4899739;29;46274;-56
2022/07/26 10:15:33;;;;;;;;;2.00;2.00;;;;;24.33;42.81;101429.13;4899827;29;45245;-55
2022/07/26 10:17:58;;;;;;;;;2.00;2.00;;;;;24.29;42.73;101423.19;4899900;29;45343;-56
2022/07/26 10:21:14;;;;;;;;;3.00;2.00;;;;;24.28;43.22;101424.13;4900207;29;45606;-58
2022/07/26 10:23:48;;;;;;;;;2.25;2.25;;;;;24.27;43.29;101422.41;4860461;29;45604;-55
2022/07/26 10:26:32;;;;;;;;;4.00;3.00;;;;;24.30;43.08;101422.25;4859992;29;45508;-55
2022/07/26 10:29:25;;;;;;;;;3.75;2.75;;;;;24.31;43.30;101418.63;4887547;29;45331;-55
2022/07/26 10:32:18;;;;;;;;;2.00;2.00;;;;;24.34;42.76;101414.94;4895646;29;45960;-52
2022/07/26 10:34:45;;;;;;;;;3.00;3.00;;;;;24.33;42.55;101423.84;4897975;29;46459;-56
2022/07/26 10:37:20;;;;;;;;;4.00;2.00;;;;;24.35;41.83;101421.94;4900184;29;45539;-51
2022/07/26 10:39:46;;;;;;;;;2.00;2.00;;;;;24.37;41.48;101425.31;4899618;29;45388;-53
2022/07/26 10:42:11;;;;;;;;;2.00;2.00;;;;;24.37;41.29;101415.59;4899789;29;45435;-52
2022/07/26 10:44:43;;;;;;;;;2.00;2.00;;;;;24.38;41.37;101422.59;4899769;29;46060;-54
2022/07/26 10:47:14;;;;;;;;;2.50;2.00;;;;;24.41;41.10;101421.56;4899721;29;45296;-50
2022/07/26 10:49:40;;;;;;;;;2.00;1.50;;;;;24.43;41.04;101429.38;4899964;29;45351;-52
2022/07/26 10:52:18;;;;;;;;;1.75;1.75;;;;;24.42;41.22;101420.59;4899835;29;45611;-52
2022/07/26 10:55:07;;;;;;;;;3.00;2.00;;;;;24.43;41.16;101426.75;4899158;29;45339;-52
2022/07/26 10:57:40;;;;;;;;;2.25;2.00;;;;;24.44;40.96;101417.84;4894110;29;45435;-62
2022/07/26 11:00:09;;;;;;;;;0.00;0.00;;;;;24.43;40.33;101422.31;4899502;29;45824;-62
2022/07/26 11:02:35;;;;;;;;;3.50;2.00;;;;;24.41;40.02;101415.41;4899681;29;45306;-60
2022/07/26 11:05:11;;;;;;;;;2.25;2.25;;;;;24.39;40.08;101415.50;4898980;29;46324;-59
2022/07/26 11:07:51;;;;;;;;;2.00;2.00;;;;;24.40;40.33;101409.25;4899234;29;45586;-60
2022/07/26 11:10:22;;;;;;;;;7.00;6.75;;;;;24.44;39.95;101420.50;4899425;29;45380;-63
2022/07/26 11:12:48;;;;;;;;;56.25;40.50;;;;;24.48;40.01;101419.38;4901511;29;45447;-62
2022/07/26 11:15:17;;;;;;;;;70.00;49.75;;;;;24.52;39.59;101410.28;4902445;29;45333;-57
2022/07/26 11:17:43;;;;;;;;;66.25;51.25;;;;;24.55;39.75;101405.63;4902262;28;45388;-58
2022/07/26 11:20:09;;;;;;;;;64.00;47.75;;;;;24.59;39.27;101410.72;4902850;29;45316;-59
2022/07/26 11:22:34;;;;;;;;;55.00;43.25;;;;;24.58;39.72;101401.94;4902725;28;45234;-59